createdAt,value
2022-10-18T00:00:53.579Z,100668.31
2022-10-18T00:03:21.985Z,100664.75
2022-10-18T00:05:50.340Z,100661.19
2022-10-18T00:08:18.981Z,100659.69
2022-10-18T00:10:47.269Z,100661.47
2022-10-18T00:13:14.971Z,100657.75
2022-10-18T00:16:14.780Z,100660.53
2022-10-18T00:18:43.472Z,100657.87
2022-10-18T00:21:16.747Z,100648.72
2022-10-18T00:23:45.844Z,100656.75
2022-10-18T00:26:24.837Z,100643.97
2022-10-18T00:29:00.863Z,100652.53
2022-10-18T00:31:31.378Z,100650.72
2022-10-18T00:34:01.967Z,100651.47
2022-10-18T00:36:32.240Z,100645.28
2022-10-18T00:39:01.254Z,100644.59
2022-10-18T00:41:31.471Z,100645.12
2022-10-18T00:44:06.491Z,100643.41
2022-10-18T00:46:36.519Z,100638.97
2022-10-18T00:49:12.031Z,100649.06
2022-10-18T00:51:45.537Z,100632.88
2022-10-18T00:54:14.251Z,100637.28
2022-10-18T00:56:44.956Z,100632.59
2022-10-18T00:59:14.661Z,100627.88
2022-10-18T01:01:43.098Z,100621.38
2022-10-18T01:04:11.938Z,100626.38
2022-10-18T01:06:53.014Z,100627.19
2022-10-18T01:09:25.629Z,100621.91
2022-10-18T01:12:21.000Z,100619.91
2022-10-18T01:15:04.460Z,100613.22
2022-10-18T01:17:38.939Z,100617.13
2022-10-18T01:20:37.520Z,100610.13
2022-10-18T01:23:05.236Z,100604.84
2022-10-18T01:26:02.670Z,100604.88
2022-10-18T01:28:53.216Z,100598.03
2022-10-18T01:31:26.599Z,100593.31
2022-10-18T01:33:58.977Z,100597.56
2022-10-18T01:36:34.419Z,100594.47
2022-10-18T01:39:08.060Z,100600.16
2022-10-18T01:41:37.510Z,100586.47
2022-10-18T01:44:07.600Z,100591.03
2022-10-18T01:46:36.328Z,100590.69
2022-10-18T01:49:04.713Z,100594.22
2022-10-18T01:51:33.480Z,100585.09
2022-10-18T01:54:01.509Z,100573.59
2022-10-18T01:56:39.388Z,100579.66
2022-10-18T01:59:44.858Z,100577.03
2022-10-18T02:02:39.402Z,100576.63
2022-10-18T02:05:10.499Z,100566.34
2022-10-18T02:07:41.011Z,100565.06
2022-10-18T02:12:48.508Z,100556.72
2022-10-18T02:15:21.778Z,100557.81
2022-10-18T02:17:50.750Z,100561.03
2022-10-18T02:20:21.700Z,100560.19
2022-10-18T02:22:51.418Z,100564.66
2022-10-18T02:25:25.250Z,100563.31
2022-10-18T02:27:55.715Z,100560.75
2022-10-18T02:30:47.040Z,100560.41
2022-10-18T02:33:23.188Z,100562.16
2022-10-18T02:35:52.449Z,100564.16
2022-10-18T02:38:20.799Z,100571.25
2022-10-18T02:40:48.605Z,100570.69
2022-10-18T02:43:16.898Z,100567.34
2022-10-18T02:45:44.659Z,100569.37
2022-10-18T02:48:12.479Z,100560.13
2022-10-18T02:50:40.549Z,100567.72
2022-10-18T02:53:08.358Z,100565.00
2022-10-18T02:55:36.261Z,100569.88
2022-10-18T02:58:04.397Z,100570.69
2022-10-18T03:00:32.266Z,100567.62
2022-10-18T03:03:00.133Z,100560.31
2022-10-18T03:05:28.277Z,100571.84
2022-10-18T03:07:59.208Z,100567.22
2022-10-18T03:10:27.011Z,100569.91
2022-10-18T03:12:55.128Z,100571.22
2022-10-18T03:15:22.940Z,100572.16
2022-10-18T03:17:50.698Z,100576.97
2022-10-18T03:20:19.962Z,100576.66
2022-10-18T03:22:47.679Z,100569.69
2022-10-18T03:25:15.533Z,100574.19
2022-10-18T03:27:44.889Z,100584.41
2022-10-18T03:30:13.651Z,100588.91
2022-10-18T03:32:41.446Z,100585.31
2022-10-18T03:35:09.951Z,100584.41
2022-10-18T03:37:38.208Z,100577.13
2022-10-18T03:40:06.796Z,100583.25
2022-10-18T03:42:35.212Z,100577.84
2022-10-18T03:45:03.132Z,100572.19
2022-10-18T03:47:31.199Z,100580.88
2022-10-18T03:49:59.331Z,100589.25
2022-10-18T03:52:29.002Z,100592.81
2022-10-18T03:54:56.986Z,100584.88
2022-10-18T03:57:25.252Z,100592.19
2022-10-18T03:59:53.111Z,100595.22
2022-10-18T04:02:20.963Z,100591.38
2022-10-18T04:04:49.688Z,100592.25
2022-10-18T04:07:17.513Z,100584.12
2022-10-18T04:09:45.262Z,100585.03
2022-10-18T04:12:13.530Z,100586.00
2022-10-18T04:14:41.258Z,100587.34
2022-10-18T04:17:09.340Z,100582.31
2022-10-18T04:19:37.540Z,100591.62
2022-10-18T04:22:05.359Z,100578.53
2022-10-18T04:24:33.211Z,100582.09
2022-10-18T04:27:01.379Z,100584.28
2022-10-18T04:29:29.109Z,100581.44
2022-10-18T04:31:57.001Z,100576.78
2022-10-18T04:34:25.089Z,100576.37
2022-10-18T04:36:52.967Z,100560.09
2022-10-18T04:39:20.809Z,100568.75
2022-10-18T04:41:48.950Z,100571.91
2022-10-18T04:44:16.867Z,100573.53
2022-10-18T04:46:44.640Z,100564.69
2022-10-18T04:49:12.649Z,100557.88
2022-10-18T04:51:40.647Z,100556.81
2022-10-18T04:54:08.427Z,100551.94
2022-10-18T04:56:36.550Z,100551.81
2022-10-18T04:59:04.485Z,100551.16
2022-10-18T05:01:32.431Z,100551.31
2022-10-18T05:04:00.694Z,100546.59
2022-10-18T05:06:28.470Z,100546.13
2022-10-18T05:08:56.378Z,100544.88
2022-10-18T05:11:24.551Z,100550.16
2022-10-18T05:13:52.536Z,100546.38
2022-10-18T05:16:20.375Z,100539.16
2022-10-18T05:18:48.596Z,100546.50
2022-10-18T05:21:16.899Z,100552.06
2022-10-18T05:23:44.609Z,100543.47
2022-10-18T05:26:12.690Z,100556.13
2022-10-18T05:28:41.492Z,100551.69
2022-10-18T05:31:11.660Z,100547.00
2022-10-18T05:33:39.866Z,100549.78
2022-10-18T05:36:07.988Z,100549.47
2022-10-18T05:38:38.984Z,100551.50
2022-10-18T05:41:07.618Z,100548.31
2022-10-18T05:43:35.424Z,100549.13
2022-10-18T05:46:04.971Z,100546.94
2022-10-18T05:48:33.573Z,100556.56
2022-10-18T05:51:01.837Z,100548.19
2022-10-18T05:53:36.641Z,100549.84
2022-10-18T05:56:06.548Z,100560.06
2022-10-18T05:58:34.871Z,100549.97
2022-10-18T06:01:03.958Z,100551.97
2022-10-18T06:03:32.670Z,100554.19
2022-10-18T06:06:04.456Z,100556.47
2022-10-18T06:08:32.923Z,100551.41
2022-10-18T06:11:00.880Z,100548.69
2022-10-18T06:13:31.130Z,100549.63
2022-10-18T06:16:00.900Z,100556.63
2022-10-18T06:18:30.420Z,100558.44
2022-10-18T06:20:59.871Z,100554.06
2022-10-18T06:23:28.752Z,100561.06
2022-10-18T06:26:04.682Z,100562.78
2022-10-18T06:28:35.289Z,100571.47
2022-10-18T06:31:04.043Z,100570.62
2022-10-18T06:33:33.622Z,100568.81
2022-10-18T06:36:06.491Z,100569.69
2022-10-18T06:38:35.537Z,100562.59
2022-10-18T06:41:06.245Z,100570.50
2022-10-18T06:43:35.763Z,100566.91
2022-10-18T06:46:06.891Z,100565.97
2022-10-18T06:48:39.153Z,100567.56
2022-10-18T06:51:08.501Z,100571.12
2022-10-18T06:53:44.073Z,100573.53
2022-10-18T06:56:17.769Z,100573.66
2022-10-18T06:58:46.265Z,100581.56
2022-10-18T07:01:16.494Z,100575.31
2022-10-18T07:03:46.072Z,100579.66
2022-10-18T07:06:16.703Z,100584.91
2022-10-18T07:08:45.089Z,100581.00
2022-10-18T07:11:16.823Z,100589.06
2022-10-18T07:13:45.030Z,100582.41
2022-10-18T07:16:18.382Z,100578.06
2022-10-18T07:18:50.020Z,100585.03
2022-10-18T07:21:27.402Z,100577.09
2022-10-18T07:23:57.431Z,100575.03
2022-10-18T07:26:29.256Z,100564.53
2022-10-18T07:29:02.115Z,100560.84
2022-10-18T07:31:30.478Z,100556.97
2022-10-18T07:33:58.820Z,100557.12
2022-10-18T07:36:27.770Z,100554.78
2022-10-18T07:38:56.960Z,100557.03
2022-10-18T07:41:29.381Z,100560.66
2022-10-18T07:43:58.081Z,100561.31
2022-10-18T07:46:26.772Z,100560.19
2022-10-18T07:48:55.307Z,100564.06
2022-10-18T07:51:24.819Z,100565.66
2022-10-18T07:53:55.180Z,100569.44
2022-10-18T07:56:25.421Z,100564.34
2022-10-18T07:58:58.339Z,100561.63
2022-10-18T08:01:27.018Z,100561.12
2022-10-18T08:03:55.365Z,100558.56
2022-10-18T08:06:24.481Z,100556.50
2022-10-18T08:08:52.778Z,100551.81
2022-10-18T08:11:23.612Z,100540.75
2022-10-18T08:13:52.891Z,100542.19
2022-10-18T08:16:29.238Z,100538.31
2022-10-18T08:18:58.600Z,100537.63
2022-10-18T08:21:27.041Z,100530.28
2022-10-18T08:23:55.282Z,100526.50
2022-10-18T08:26:25.180Z,100524.87
2022-10-18T08:28:58.227Z,100530.75
2022-10-18T08:31:37.948Z,100525.47
2022-10-18T08:34:06.261Z,100517.88
2022-10-18T08:36:34.567Z,100515.88
2022-10-18T08:39:03.902Z,100513.97
2022-10-18T08:41:38.076Z,100516.66
2022-10-18T08:44:16.636Z,100509.00
2022-10-18T08:46:49.100Z,100509.62
2022-10-18T08:49:38.368Z,100511.72
2022-10-18T08:52:33.159Z,100501.66
2022-10-18T08:55:03.199Z,100497.00
2022-10-18T08:57:32.367Z,100488.28
2022-10-18T09:00:03.027Z,100492.97
2022-10-18T09:02:42.366Z,100481.78
2022-10-18T09:05:29.050Z,100483.12
2022-10-18T09:08:17.063Z,100482.97
2022-10-18T09:11:30.879Z,100477.50
2022-10-18T09:14:09.574Z,100477.81
2022-10-18T09:17:15.928Z,100477.56
2022-10-18T09:19:57.839Z,100476.38
2022-10-18T09:22:43.974Z,100471.31
2022-10-18T09:25:49.954Z,100464.03
2022-10-18T09:28:36.834Z,100470.19
2022-10-18T09:31:06.789Z,100457.87
2022-10-18T09:33:43.058Z,100456.63
2022-10-18T09:36:17.331Z,100450.34
2022-10-18T09:38:49.811Z,100451.22
2022-10-18T09:41:41.504Z,100445.50
2022-10-18T09:44:10.300Z,100452.09
2022-10-18T09:46:42.482Z,100444.94
2022-10-18T09:49:27.213Z,100446.34
2022-10-18T09:52:10.749Z,100441.25
2022-10-18T09:54:59.293Z,100436.56
2022-10-18T09:57:31.782Z,100432.16
2022-10-18T10:00:00.879Z,100439.09
2022-10-18T10:02:29.536Z,100436.34
2022-10-18T10:04:57.898Z,100430.13
2022-10-18T10:07:35.387Z,100434.03
2022-10-18T10:10:34.151Z,100423.34
2022-10-18T10:13:23.303Z,100417.97
2022-10-18T10:15:57.651Z,100415.78
2022-10-18T10:18:36.290Z,100406.44
2022-10-18T10:21:06.511Z,100408.50
2022-10-18T10:23:39.080Z,100409.87
2022-10-18T10:26:21.041Z,100401.84
2022-10-18T10:28:49.221Z,100402.44
2022-10-18T10:31:19.021Z,100400.13
2022-10-18T10:33:47.942Z,100394.00
2022-10-18T10:36:20.743Z,100386.84
2022-10-18T10:39:10.011Z,100386.84
2022-10-18T10:41:39.050Z,100382.66
2022-10-18T10:44:16.782Z,100376.19
2022-10-18T10:46:44.814Z,100368.06
2022-10-18T10:49:41.035Z,100366.97
2022-10-18T10:52:28.631Z,100368.72
2022-10-18T10:55:11.397Z,100355.53
2022-10-18T10:57:50.731Z,100360.13
2022-10-18T11:00:34.440Z,100360.88
2022-10-18T11:03:28.437Z,100348.63
2022-10-18T11:06:01.024Z,100352.16
2022-10-18T11:08:36.730Z,100340.91
2022-10-18T11:11:28.004Z,100350.16
2022-10-18T11:14:24.753Z,100344.81
2022-10-18T11:17:13.357Z,100337.56
2022-10-18T11:20:06.707Z,100336.53
2022-10-18T11:22:40.331Z,100327.41
2022-10-18T11:25:14.769Z,100325.06
2022-10-18T11:28:00.841Z,100333.88
2022-10-18T11:30:34.481Z,100321.03
2022-10-18T11:34:03.661Z,100319.44
2022-10-18T11:36:36.484Z,100310.88
2022-10-18T11:39:32.979Z,100302.19
2022-10-18T11:42:08.814Z,100300.91
2022-10-18T11:44:45.580Z,100294.66
2022-10-18T11:47:52.273Z,100290.06
2022-10-18T11:50:26.888Z,100297.06
2022-10-18T11:53:03.722Z,100292.50
2022-10-18T11:55:39.773Z,100289.81
2022-10-18T11:58:19.809Z,100283.94
2022-10-18T12:00:59.352Z,100277.03
2022-10-18T12:03:35.125Z,100274.19
2022-10-18T12:06:12.800Z,100272.66
2022-10-18T12:08:54.350Z,100271.81
2022-10-18T12:11:29.790Z,100262.78
2022-10-18T12:14:01.561Z,100260.19
2022-10-18T12:16:50.593Z,100255.66
2022-10-18T12:19:27.296Z,100246.72
2022-10-18T12:22:16.823Z,100246.16
2022-10-18T12:24:44.972Z,100244.28
2022-10-18T12:27:15.531Z,100247.13
2022-10-18T12:30:07.661Z,100238.66
2022-10-18T12:32:37.117Z,100238.97
2022-10-18T12:35:09.722Z,100234.94
2022-10-18T12:37:48.879Z,100225.75
2022-10-18T12:40:36.676Z,100230.34
2022-10-18T12:43:10.590Z,100226.91
2022-10-18T12:45:56.443Z,100227.28
2022-10-18T12:48:39.742Z,100219.72
2022-10-18T12:51:20.775Z,100208.31
2022-10-18T12:54:02.980Z,100207.53
2022-10-18T12:56:34.779Z,100197.41
2022-10-18T12:59:15.400Z,100194.84
2022-10-18T13:01:52.511Z,100179.69
2022-10-18T13:04:41.062Z,100184.28
2022-10-18T13:07:09.049Z,100185.00
2022-10-18T13:09:40.890Z,100181.25
2022-10-18T13:12:13.159Z,100177.22
2022-10-18T13:15:20.512Z,100175.09
2022-10-18T13:18:11.023Z,100176.19
2022-10-18T13:20:56.923Z,100177.56
2022-10-18T13:23:40.060Z,100173.38
2022-10-18T13:26:25.511Z,100176.50
2022-10-18T13:29:02.543Z,100169.59
2022-10-18T13:31:40.289Z,100166.25
2022-10-18T13:34:31.211Z,100165.78
2022-10-18T13:37:19.401Z,100165.87
2022-10-18T13:39:48.041Z,100161.53
2022-10-18T13:42:16.210Z,100162.06
2022-10-18T13:44:45.025Z,100163.38
2022-10-18T13:47:15.451Z,100153.22
2022-10-18T13:49:59.308Z,100158.69
2022-10-18T13:52:42.831Z,100164.69
2022-10-18T13:55:30.914Z,100152.41
2022-10-18T13:58:35.805Z,100148.19
2022-10-18T14:01:15.498Z,100140.53
2022-10-18T14:03:58.712Z,100149.31
2022-10-18T14:06:42.861Z,100153.00
2022-10-18T14:12:17.621Z,100137.88
2022-10-18T14:14:54.119Z,100141.87
2022-10-18T14:17:24.738Z,100135.34
2022-10-18T14:19:58.065Z,100132.16
2022-10-18T14:23:04.712Z,100129.06
2022-10-18T14:25:37.820Z,100128.16
2022-10-18T14:28:19.862Z,100126.13
2022-10-18T14:30:53.649Z,100130.12
2022-10-18T14:33:28.991Z,100120.59
2022-10-18T14:36:04.391Z,100119.91
2022-10-18T14:38:32.890Z,100117.66
2022-10-18T14:41:21.282Z,100110.34
2022-10-18T14:43:49.868Z,100109.91
2022-10-18T14:46:23.991Z,100103.94
2022-10-18T14:48:57.301Z,100094.87
2022-10-18T14:51:26.936Z,100097.75
2022-10-18T14:53:55.487Z,100098.03
2022-10-18T14:56:27.230Z,100102.09
2022-10-18T14:58:57.053Z,100104.28
2022-10-18T15:01:28.415Z,100095.19
2022-10-18T15:03:58.761Z,100081.63
2022-10-18T15:06:27.350Z,100089.91
2022-10-18T15:08:57.890Z,100079.69
2022-10-18T15:11:26.935Z,100089.72
2022-10-18T15:13:57.740Z,100090.28
2022-10-18T15:16:28.493Z,100089.56
2022-10-18T15:19:31.879Z,100086.09
2022-10-18T15:22:31.224Z,100078.09
2022-10-18T15:25:34.692Z,100078.06
2022-10-18T15:28:03.199Z,100071.91
2022-10-18T15:30:39.486Z,100072.53
2022-10-18T15:33:10.003Z,100071.37
2022-10-18T15:35:39.130Z,100071.09
2022-10-18T15:38:15.881Z,100067.91
2022-10-18T15:40:44.058Z,100067.13
2022-10-18T15:43:24.481Z,100076.88
2022-10-18T15:46:00.283Z,100074.78
2022-10-18T15:48:41.861Z,100075.31
2022-10-18T15:51:38.154Z,100062.09
2022-10-18T15:54:07.613Z,100060.44
2022-10-18T15:56:36.682Z,100056.47
2022-10-18T15:59:07.185Z,100052.12
2022-10-18T16:01:37.744Z,100044.06
2022-10-18T16:04:14.520Z,100053.47
2022-10-18T16:06:42.320Z,100046.44
2022-10-18T16:09:13.516Z,100045.19
2022-10-18T16:11:41.510Z,100052.06
2022-10-18T16:14:09.565Z,100055.47
2022-10-18T16:16:39.053Z,100063.94
2022-10-18T16:19:07.698Z,100059.28
2022-10-18T16:21:38.551Z,100069.97
2022-10-18T16:24:07.846Z,100070.31
2022-10-18T16:26:36.308Z,100075.28
2022-10-18T16:29:04.768Z,100069.47
2022-10-18T16:31:34.310Z,100071.13
2022-10-18T16:34:02.891Z,100067.41
2022-10-18T16:36:33.421Z,100069.88
2022-10-18T16:39:03.767Z,100066.63
2022-10-18T16:41:31.614Z,100068.38
2022-10-18T16:43:59.839Z,100076.03
2022-10-18T16:46:31.980Z,100083.19
2022-10-18T16:49:00.771Z,100085.41
2022-10-18T16:51:29.493Z,100077.81
2022-10-18T16:53:57.428Z,100081.22
2022-10-18T16:56:31.119Z,100070.91
2022-10-18T16:59:00.182Z,100068.22
2022-10-18T17:01:28.076Z,100073.53
2022-10-18T17:03:56.152Z,100074.44
2022-10-18T17:06:27.151Z,100070.84
2022-10-18T17:08:57.301Z,100073.47
2022-10-18T17:11:27.971Z,100076.19
2022-10-18T17:13:56.890Z,100079.03
2022-10-18T17:19:02.829Z,100078.91
2022-10-18T17:21:31.819Z,100079.66
2022-10-18T17:24:03.748Z,100081.50
2022-10-18T17:26:32.448Z,100089.97
2022-10-18T17:29:03.943Z,100086.81
2022-10-18T17:31:32.827Z,100087.25
2022-10-18T17:34:02.220Z,100080.34
2022-10-18T17:36:32.592Z,100079.66
2022-10-18T17:39:01.562Z,100072.84
2022-10-18T17:41:30.301Z,100065.03
2022-10-18T17:44:02.189Z,100065.00
2022-10-18T17:46:30.370Z,100065.91
2022-10-18T17:49:01.850Z,100067.66
2022-10-18T17:51:30.488Z,100062.56
2022-10-18T17:53:58.567Z,100059.19
2022-10-18T17:56:31.366Z,100062.59
2022-10-18T17:59:06.450Z,100060.69
2022-10-18T18:01:35.671Z,100064.22
2022-10-18T18:04:05.443Z,100064.22
2022-10-18T18:06:35.964Z,100061.50
2022-10-18T18:09:13.119Z,100065.84
2022-10-18T18:11:52.559Z,100066.12
2022-10-18T18:14:30.328Z,100061.78
2022-10-18T18:17:01.791Z,100057.41
2022-10-18T18:19:31.141Z,100057.25
2022-10-18T18:21:59.665Z,100051.22
2022-10-18T18:24:28.400Z,100045.94
2022-10-18T18:26:57.698Z,100048.56
2022-10-18T18:29:28.986Z,100045.16
2022-10-18T18:31:59.521Z,100044.34
2022-10-18T18:34:28.163Z,100051.25
2022-10-18T18:36:58.380Z,100045.16
2022-10-18T18:39:30.512Z,100049.63
2022-10-18T18:41:58.790Z,100046.97
2022-10-18T18:44:27.082Z,100051.22
2022-10-18T18:46:55.393Z,100044.31
2022-10-18T18:49:24.362Z,100033.06
2022-10-18T18:51:53.190Z,100028.75
2022-10-18T18:54:22.392Z,100024.41
2022-10-18T18:56:51.412Z,100025.25
2022-10-18T18:59:20.442Z,100026.13
2022-10-18T19:01:50.230Z,100031.34
2022-10-18T19:04:18.769Z,100027.00
2022-10-18T19:06:47.200Z,100022.69
2022-10-18T19:09:25.782Z,100026.06
2022-10-18T19:11:56.237Z,100026.16
2022-10-18T19:14:25.884Z,100022.66
2022-10-18T19:16:57.944Z,100018.34
2022-10-18T19:19:29.308Z,100022.66
2022-10-18T19:22:00.130Z,100017.47
2022-10-18T19:24:30.454Z,100001.88
2022-10-18T19:27:05.898Z,100010.47
2022-10-18T19:29:37.850Z,100010.56
2022-10-18T19:32:08.765Z,100009.66
2022-10-18T19:34:38.651Z,100004.50
2022-10-18T19:37:07.380Z,100009.69
2022-10-18T19:39:35.901Z,100006.19
2022-10-18T19:42:07.091Z,100010.56
2022-10-18T19:44:36.659Z,100017.50
2022-10-18T19:47:06.330Z,100007.09
2022-10-18T19:49:34.377Z,100004.47
2022-10-18T19:52:02.800Z,100013.06
2022-10-18T19:54:30.723Z,100006.19
2022-10-18T19:56:58.741Z,100008.81
2022-10-18T19:59:27.282Z,100003.59
2022-10-18T20:01:55.362Z,100002.75
2022-10-18T20:04:23.432Z,100002.72
2022-10-18T20:06:51.341Z,99999.25
2022-10-18T20:09:21.510Z,99992.31
2022-10-18T20:11:49.740Z,99996.59
2022-10-18T20:14:17.569Z,99995.75
2022-10-18T20:16:45.382Z,99996.59
2022-10-18T20:19:13.581Z,99998.31
2022-10-18T20:21:41.572Z,99995.75
2022-10-18T20:24:09.698Z,99986.25
2022-10-18T20:26:37.930Z,99981.03
2022-10-18T20:29:07.818Z,99987.97
2022-10-18T20:31:38.644Z,99994.06
2022-10-18T20:34:10.379Z,99994.91
2022-10-18T20:36:38.451Z,99988.81
2022-10-18T20:39:07.379Z,99978.37
2022-10-18T20:41:41.217Z,99980.13
2022-10-18T20:44:13.576Z,99985.34
2022-10-18T20:46:41.630Z,99990.50
2022-10-18T20:49:12.656Z,99974.88
2022-10-18T20:51:40.798Z,99977.38
2022-10-18T20:54:10.119Z,99974.00
2022-10-18T20:56:39.213Z,99968.84
2022-10-18T20:59:10.044Z,99967.16
2022-10-18T21:01:39.169Z,99967.97
2022-10-18T21:04:09.809Z,99966.25
2022-10-18T21:06:42.699Z,99969.72
2022-10-18T21:09:19.553Z,99968.84
2022-10-18T21:11:50.009Z,99962.75
2022-10-18T21:14:19.721Z,99957.63
2022-10-18T21:16:48.488Z,99962.72
2022-10-18T21:19:19.921Z,99967.91
2022-10-18T21:21:50.648Z,99966.25
2022-10-18T21:24:19.860Z,99960.19
2022-10-18T21:26:48.208Z,99959.31
2022-10-18T21:29:21.604Z,99965.34
2022-10-18T21:31:50.040Z,99964.50
2022-10-18T21:34:18.209Z,99957.56
2022-10-18T21:36:47.450Z,99947.97
2022-10-18T21:39:25.520Z,99949.72
2022-10-18T21:41:53.799Z,99944.53
2022-10-18T21:44:21.918Z,99935.03
2022-10-18T21:46:50.000Z,99947.00
2022-10-18T21:49:18.263Z,99942.69
2022-10-18T21:51:46.150Z,99928.03
2022-10-18T21:54:16.257Z,99934.94
2022-10-18T21:56:45.422Z,99924.59
2022-10-18T21:59:13.722Z,99921.16
2022-10-18T22:01:42.924Z,99920.28
2022-10-18T22:04:24.649Z,99921.16
2022-10-18T22:06:52.551Z,99909.87
2022-10-18T22:09:21.629Z,99909.84
2022-10-18T22:11:52.348Z,99917.66
2022-10-18T22:14:21.280Z,99912.47
2022-10-18T22:16:49.500Z,99916.78
2022-10-18T22:19:17.431Z,99917.66
2022-10-18T22:21:45.732Z,99910.72
2022-10-18T22:24:13.870Z,99906.38
2022-10-18T22:26:43.068Z,99909.87
2022-10-18T22:29:18.164Z,99910.72
2022-10-18T22:31:49.330Z,99912.31
2022-10-18T22:34:20.029Z,99905.34
2022-10-18T22:36:48.050Z,99889.75
2022-10-18T22:39:17.070Z,99892.38
2022-10-18T22:41:46.623Z,99892.22
2022-10-18T22:44:15.178Z,99894.81
2022-10-18T22:46:43.278Z,99887.84
2022-10-18T22:49:12.048Z,99893.13
2022-10-18T22:51:40.611Z,99893.84
2022-10-18T22:54:08.966Z,99894.06
2022-10-18T22:56:37.310Z,99886.25
2022-10-18T22:59:05.146Z,99893.28
2022-10-18T23:01:33.053Z,99900.13
2022-10-18T23:04:01.965Z,99901.09
2022-10-18T23:06:33.012Z,99898.25
2022-10-18T23:09:05.112Z,99893.84
2022-10-18T23:11:34.089Z,99900.88
2022-10-18T23:14:03.946Z,99893.63
2022-10-18T23:16:31.838Z,99886.19
2022-10-18T23:18:59.885Z,99877.38
2022-10-18T23:21:28.780Z,99879.09
2022-10-18T23:23:57.416Z,99886.25
2022-10-18T23:26:26.953Z,99878.47
2022-10-18T23:28:55.741Z,99879.00
2022-10-18T23:31:26.344Z,99874.75
2022-10-18T23:33:56.588Z,99877.50
2022-10-18T23:36:25.534Z,99870.78
2022-10-18T23:38:53.847Z,99867.78
2022-10-18T23:41:21.859Z,99862.94
2022-10-18T23:43:50.269Z,99868.25
2022-10-18T23:46:18.658Z,99858.41
2022-10-18T23:48:47.082Z,99855.13
2022-10-18T23:51:16.249Z,99857.50
2022-10-18T23:53:44.520Z,99859.69
2022-10-18T23:56:14.433Z,99863.03
2022-10-18T23:58:43.990Z,99850.81
